createdAt,value
2022-08-10T00:01:01.695Z,17.72
2022-08-10T00:03:29.826Z,17.70
2022-08-10T00:05:59.289Z,17.59
2022-08-10T00:08:27.647Z,17.64
2022-08-10T00:10:57.024Z,17.62
2022-08-10T00:13:26.386Z,17.59
2022-08-10T00:15:55.434Z,17.58
2022-08-10T00:18:35.105Z,17.50
2022-08-10T00:21:06.852Z,17.55
2022-08-10T00:23:35.513Z,17.46
2022-08-10T00:26:04.399Z,17.50
2022-08-10T00:28:32.845Z,17.35
2022-08-10T00:31:01.185Z,17.45
2022-08-10T00:33:29.619Z,17.44
2022-08-10T00:35:57.722Z,16.98
2022-08-10T00:38:27.030Z,17.37
2022-08-10T00:40:55.262Z,17.34
2022-08-10T00:43:24.222Z,17.35
2022-08-10T00:45:58.836Z,17.35
2022-08-10T00:48:29.172Z,17.36
2022-08-10T00:50:58.790Z,17.33
2022-08-10T00:53:28.824Z,17.29
2022-08-10T00:57:05.138Z,17.26
2022-08-10T00:58:46.060Z,17.25
2022-08-10T01:02:07.406Z,17.21
2022-08-10T01:04:36.426Z,17.12
2022-08-10T01:07:07.050Z,17.16
2022-08-10T01:09:57.025Z,16.87
2022-08-10T01:12:39.596Z,16.75
2022-08-10T01:15:15.473Z,17.06
2022-08-10T01:17:52.235Z,16.86
2022-08-10T01:20:31.251Z,16.73
2022-08-10T01:23:41.178Z,16.75
2022-08-10T01:26:32.102Z,16.58
2022-08-10T01:29:17.575Z,16.92
2022-08-10T01:31:52.446Z,16.91
2022-08-10T01:34:25.403Z,16.91
2022-08-10T01:37:01.038Z,16.67
2022-08-10T01:39:34.745Z,16.91
2022-08-10T01:42:06.252Z,16.83
2022-08-10T01:44:37.853Z,16.88
2022-08-10T01:47:27.571Z,16.88
2022-08-10T01:50:04.285Z,16.86
2022-08-10T01:52:34.198Z,16.85
2022-08-10T01:55:02.360Z,16.74
2022-08-10T01:57:33.224Z,16.81
2022-08-10T02:00:03.801Z,16.80
2022-08-10T02:02:36.198Z,16.76
2022-08-10T02:05:06.523Z,16.72
2022-08-10T02:07:37.877Z,16.64
2022-08-10T02:10:11.996Z,16.65
2022-08-10T02:12:42.328Z,16.72
2022-08-10T02:15:14.562Z,16.69
2022-08-10T02:17:57.071Z,16.65
2022-08-10T02:20:33.701Z,16.63
2022-08-10T02:23:05.741Z,16.35
2022-08-10T02:25:41.002Z,16.62
2022-08-10T02:28:30.158Z,16.61
2022-08-10T02:31:01.642Z,16.49
2022-08-10T02:33:32.119Z,16.56
2022-08-10T02:36:07.388Z,16.30
2022-08-10T02:38:59.235Z,16.46
2022-08-10T02:42:18.762Z,15.90
2022-08-10T02:45:24.326Z,16.40
2022-08-10T02:47:22.837Z,16.31
2022-08-10T02:50:03.332Z,16.40
2022-08-10T02:52:39.669Z,16.38
2022-08-10T02:55:17.998Z,16.39
2022-08-10T02:58:17.166Z,16.30
2022-08-10T03:00:45.865Z,16.38
2022-08-10T03:03:20.615Z,16.38
2022-08-10T03:05:55.890Z,16.28
2022-08-10T03:08:27.932Z,16.01
2022-08-10T03:10:58.382Z,16.38
2022-08-10T03:13:27.236Z,16.38
2022-08-10T03:15:57.355Z,16.42
2022-08-10T03:18:26.373Z,16.46
2022-08-10T03:20:57.856Z,16.47
2022-08-10T03:23:28.354Z,16.36
2022-08-10T03:25:58.902Z,16.49
2022-08-10T03:28:30.363Z,16.49
2022-08-10T03:31:00.413Z,16.48
2022-08-10T03:33:30.905Z,16.44
2022-08-10T03:36:42.691Z,16.50
2022-08-10T03:38:51.898Z,16.50
2022-08-10T03:41:24.233Z,16.50
2022-08-10T03:43:54.537Z,16.49
2022-08-10T03:46:26.018Z,16.49
2022-08-10T03:48:57.007Z,16.53
2022-08-10T03:51:28.481Z,16.33
2022-08-10T03:54:03.055Z,16.58
2022-08-10T03:56:36.052Z,16.60
2022-08-10T03:59:05.587Z,16.42
2022-08-10T04:02:46.227Z,16.63
2022-08-10T04:04:25.033Z,16.66
2022-08-10T04:06:56.477Z,16.68
2022-08-10T04:09:29.730Z,16.69
2022-08-10T04:12:15.025Z,16.74
2022-08-10T04:14:51.144Z,16.79
2022-08-10T04:17:59.366Z,16.14
2022-08-10T04:20:19.681Z,16.84
2022-08-10T04:22:53.494Z,16.86
2022-08-10T04:25:23.906Z,16.89
2022-08-10T04:27:53.547Z,16.94
2022-08-10T04:30:21.962Z,16.97
2022-08-10T04:32:54.020Z,16.95
2022-08-10T04:35:23.885Z,16.75
2022-08-10T04:37:57.078Z,16.99
2022-08-10T04:40:29.158Z,17.04
2022-08-10T04:43:02.354Z,17.11
2022-08-10T04:45:50.240Z,17.17
2022-08-10T04:48:42.424Z,17.19
2022-08-10T04:51:18.047Z,17.18
2022-08-10T04:54:05.019Z,17.20
2022-08-10T04:56:39.689Z,17.25
2022-08-10T04:59:09.353Z,17.24
2022-08-10T05:02:29.846Z,17.23
2022-08-10T05:04:34.627Z,17.03
2022-08-10T05:07:09.006Z,17.26
2022-08-10T05:10:01.133Z,17.18
2022-08-10T05:12:27.959Z,17.34
2022-08-10T05:14:56.303Z,17.36
2022-08-10T05:17:27.293Z,17.32
2022-08-10T05:20:04.989Z,17.35
2022-08-10T05:22:38.924Z,17.38
2022-08-10T05:25:11.165Z,17.44
2022-08-10T05:27:40.074Z,17.58
2022-08-10T05:30:09.506Z,17.64
2022-08-10T05:32:56.914Z,17.69
2022-08-10T05:35:57.697Z,17.72
2022-08-10T05:38:18.656Z,17.67
2022-08-10T05:40:50.603Z,17.64
2022-08-10T05:43:20.380Z,17.61
2022-08-10T05:46:19.940Z,17.51
2022-08-10T05:48:57.047Z,17.89
2022-08-10T05:51:27.763Z,17.95
2022-08-10T05:54:02.199Z,18.03
2022-08-10T05:56:55.169Z,18.04
2022-08-10T06:00:31.185Z,17.93
2022-08-10T06:02:41.039Z,17.87
2022-08-10T06:05:11.909Z,17.77
2022-08-10T06:07:42.710Z,17.95
2022-08-10T06:10:31.371Z,18.00
2022-08-10T06:13:26.838Z,17.95
2022-08-10T06:16:02.300Z,18.13
2022-08-10T06:18:30.979Z,18.29
2022-08-10T06:20:59.257Z,18.39
2022-08-10T06:23:30.062Z,18.50
2022-08-10T06:26:10.993Z,18.58
2022-08-10T06:28:56.073Z,18.61
2022-08-10T06:31:48.521Z,18.64
2022-08-10T06:34:22.284Z,18.73
2022-08-10T06:36:53.019Z,18.78
2022-08-10T06:39:33.634Z,18.78
2022-08-10T06:42:16.051Z,18.87
2022-08-10T06:44:53.786Z,18.98
2022-08-10T06:47:25.538Z,18.93
2022-08-10T06:49:59.916Z,18.84
2022-08-10T06:52:34.075Z,19.04
2022-08-10T06:55:05.393Z,19.08
2022-08-10T06:57:40.077Z,19.24
2022-08-10T07:00:11.439Z,19.43
2022-08-10T07:02:46.052Z,19.60
2022-08-10T07:05:21.640Z,19.53
2022-08-10T07:07:52.563Z,19.65
2022-08-10T07:10:23.643Z,19.65
2022-08-10T07:12:59.090Z,19.59
2022-08-10T07:16:00.240Z,19.61
2022-08-10T07:18:20.628Z,19.72
2022-08-10T07:20:50.962Z,19.68
2022-08-10T07:23:58.508Z,19.68
2022-08-10T07:26:10.204Z,19.58
2022-08-10T07:28:38.830Z,19.56
2022-08-10T07:31:34.006Z,19.57
2022-08-10T07:34:00.125Z,19.62
2022-08-10T07:36:30.750Z,19.76
2022-08-10T07:39:01.136Z,19.68
2022-08-10T07:41:32.288Z,19.66
2022-08-10T07:44:03.329Z,19.70
2022-08-10T07:46:35.914Z,19.72
2022-08-10T07:49:19.261Z,19.79
2022-08-10T07:51:54.596Z,19.92
2022-08-10T07:54:26.449Z,19.80
2022-08-10T07:57:00.722Z,19.91
2022-08-10T07:59:38.118Z,19.77
2022-08-10T08:02:13.445Z,19.59
2022-08-10T08:04:43.360Z,19.89
2022-08-10T08:07:13.614Z,19.90
2022-08-10T08:09:57.747Z,19.88
2022-08-10T08:12:33.616Z,19.98
2022-08-10T08:16:15.696Z,20.05
2022-08-10T08:17:59.713Z,20.18
2022-08-10T08:20:29.452Z,20.47
2022-08-10T08:24:05.429Z,20.72
2022-08-10T08:25:49.539Z,21.04
2022-08-10T08:28:18.669Z,21.45
2022-08-10T08:30:49.076Z,21.67
2022-08-10T08:33:41.496Z,21.89
2022-08-10T08:36:09.151Z,22.30
2022-08-10T08:38:38.720Z,22.63
2022-08-10T08:41:32.193Z,22.56
2022-08-10T08:44:07.690Z,22.22
2022-08-10T08:46:58.818Z,22.18
2022-08-10T08:50:10.260Z,22.69
2022-08-10T08:52:51.191Z,22.58
2022-08-10T08:56:01.413Z,22.85
2022-08-10T08:58:47.874Z,22.81
2022-08-10T09:01:40.952Z,22.82
2022-08-10T09:04:24.151Z,23.02
2022-08-10T09:07:43.771Z,22.82
2022-08-10T09:10:11.669Z,22.76
2022-08-10T09:12:52.893Z,22.61
2022-08-10T09:15:40.822Z,22.59
2022-08-10T09:18:19.182Z,22.89
2022-08-10T09:20:50.803Z,22.98
2022-08-10T09:24:02.104Z,22.91
2022-08-10T09:26:21.765Z,22.77
2022-08-10T09:29:11.913Z,23.01
2022-08-10T09:33:05.834Z,23.05
2022-08-10T09:36:21.165Z,22.79
2022-08-10T09:38:02.552Z,23.05
2022-08-10T09:40:59.993Z,23.09
2022-08-10T09:43:41.435Z,22.76
2022-08-10T09:46:17.999Z,22.72
2022-08-10T09:48:55.608Z,22.63
2022-08-10T09:51:48.441Z,22.52
2022-08-10T09:54:26.934Z,22.42
2022-08-10T09:57:41.598Z,22.35
2022-08-10T10:00:01.621Z,21.87
2022-08-10T10:02:39.379Z,22.09
2022-08-10T10:05:24.860Z,22.27
2022-08-10T10:08:00.256Z,22.38
2022-08-10T10:10:37.239Z,22.40
2022-08-10T10:13:57.369Z,22.57
2022-08-10T10:16:44.869Z,22.94
2022-08-10T10:19:40.049Z,23.28
2022-08-10T10:22:26.481Z,23.48
2022-08-10T10:25:00.819Z,23.58
2022-08-10T10:27:47.933Z,23.86
2022-08-10T10:30:20.430Z,23.59
2022-08-10T10:33:00.055Z,23.64
2022-08-10T10:35:33.230Z,23.43
2022-08-10T10:38:04.088Z,23.22
2022-08-10T10:40:41.483Z,23.38
2022-08-10T10:43:22.831Z,23.69
2022-08-10T10:46:04.706Z,24.09
2022-08-10T10:48:41.436Z,24.42
2022-08-10T10:51:16.270Z,24.46
2022-08-10T10:53:50.770Z,24.55
2022-08-10T10:56:26.613Z,25.10
2022-08-10T10:59:53.745Z,25.63
2022-08-10T11:02:23.127Z,25.12
2022-08-10T11:04:59.276Z,24.87
2022-08-10T11:07:37.187Z,24.76
2022-08-10T11:10:32.386Z,24.68
2022-08-10T11:14:22.904Z,24.79
2022-08-10T11:16:05.505Z,25.12
2022-08-10T11:18:54.699Z,25.84
2022-08-10T11:21:31.714Z,26.84
2022-08-10T11:24:46.745Z,26.70
2022-08-10T11:27:07.199Z,26.09
2022-08-10T11:29:43.894Z,25.62
2022-08-10T11:32:22.282Z,25.29
2022-08-10T11:35:10.628Z,25.27
2022-08-10T11:38:31.881Z,25.18
2022-08-10T11:40:38.729Z,25.28
2022-08-10T11:43:12.565Z,25.37
2022-08-10T11:45:51.981Z,25.71
2022-08-10T11:48:53.102Z,26.15
2022-08-10T11:51:22.385Z,26.38
2022-08-10T11:53:58.157Z,25.91
2022-08-10T11:56:31.596Z,25.86
2022-08-10T11:59:17.636Z,25.72
2022-08-10T12:01:46.873Z,25.95
2022-08-10T12:04:17.500Z,26.23
2022-08-10T12:06:56.450Z,26.19
2022-08-10T12:10:11.244Z,26.56
2022-08-10T12:12:14.739Z,26.53
2022-08-10T12:14:49.566Z,26.88
2022-08-10T12:17:21.539Z,27.22
2022-08-10T12:20:01.817Z,27.67
2022-08-10T12:22:37.565Z,27.80
2022-08-10T12:25:18.155Z,27.70
2022-08-10T12:28:10.386Z,27.55
2022-08-10T12:30:46.945Z,27.36
2022-08-10T12:33:22.605Z,26.78
2022-08-10T12:36:17.294Z,26.93
2022-08-10T12:38:53.896Z,27.23
2022-08-10T12:41:43.857Z,27.78
2022-08-10T12:44:16.764Z,28.11
2022-08-10T12:46:54.326Z,28.05
2022-08-10T12:52:20.650Z,29.08
2022-08-10T12:54:52.386Z,29.21
2022-08-10T12:57:24.149Z,29.35
2022-08-10T12:59:54.730Z,29.56
2022-08-10T13:02:27.623Z,29.73
2022-08-10T13:05:00.306Z,29.39
2022-08-10T13:08:03.522Z,29.76
2022-08-10T13:10:23.573Z,29.61
2022-08-10T13:12:55.637Z,30.14
2022-08-10T13:15:48.614Z,30.33
2022-08-10T13:18:18.702Z,30.78
2022-08-10T13:20:52.147Z,31.16
2022-08-10T13:23:23.345Z,31.16
2022-08-10T13:25:55.272Z,30.63
2022-08-10T13:28:36.460Z,30.96
2022-08-10T13:31:11.614Z,30.86
2022-08-10T13:34:41.300Z,31.36
2022-08-10T13:36:39.837Z,31.68
2022-08-10T13:39:09.551Z,31.64
2022-08-10T13:41:43.683Z,30.52
2022-08-10T13:44:15.817Z,30.21
2022-08-10T13:46:54.128Z,30.51
2022-08-10T13:49:22.714Z,30.68
2022-08-10T13:51:53.897Z,30.64
2022-08-10T13:54:28.734Z,30.56
2022-08-10T13:57:00.186Z,30.62
2022-08-10T14:00:35.506Z,30.52
2022-08-10T14:02:27.022Z,29.94
2022-08-10T14:04:58.748Z,30.07
2022-08-10T14:07:28.809Z,29.35
2022-08-10T14:10:07.364Z,29.64
2022-08-10T14:12:39.699Z,29.57
2022-08-10T14:15:11.190Z,29.62
2022-08-10T14:17:44.729Z,29.62
2022-08-10T14:20:18.048Z,30.33
2022-08-10T14:22:49.863Z,30.72
2022-08-10T14:25:17.888Z,30.31
2022-08-10T14:28:03.425Z,30.18
2022-08-10T14:30:34.451Z,30.11
2022-08-10T14:33:04.840Z,29.83
2022-08-10T14:36:23.228Z,29.97
2022-08-10T14:38:30.045Z,30.22
2022-08-10T14:41:01.499Z,30.86
2022-08-10T14:43:36.152Z,31.43
2022-08-10T14:46:07.254Z,30.93
2022-08-10T14:48:39.834Z,32.00
2022-08-10T14:51:10.435Z,31.99
2022-08-10T14:53:42.391Z,31.40
2022-08-10T14:56:14.097Z,31.13
2022-08-10T14:58:59.036Z,31.33
2022-08-10T15:02:37.721Z,31.66
2022-08-10T15:04:28.782Z,31.59
2022-08-10T15:07:01.328Z,31.36
2022-08-10T15:09:59.266Z,31.31
2022-08-10T15:12:27.570Z,32.01
2022-08-10T15:15:01.065Z,32.11
2022-08-10T15:17:35.013Z,31.81
2022-08-10T15:20:14.824Z,31.59
2022-08-10T15:22:50.337Z,31.50
2022-08-10T15:25:25.393Z,31.14
2022-08-10T15:28:05.310Z,31.39
2022-08-10T15:30:40.780Z,31.16
2022-08-10T15:33:57.510Z,31.37
2022-08-10T15:37:02.017Z,31.28
2022-08-10T15:40:24.725Z,31.80
2022-08-10T15:42:35.189Z,32.18
2022-08-10T15:45:04.083Z,32.16
2022-08-10T15:47:45.933Z,32.30
2022-08-10T15:50:18.190Z,31.84
2022-08-10T15:53:01.688Z,31.45
2022-08-10T15:55:43.777Z,31.11
2022-08-10T15:58:39.129Z,31.09
2022-08-10T16:02:13.853Z,31.45
2022-08-10T16:04:08.513Z,30.96
2022-08-10T16:06:41.277Z,30.84
2022-08-10T16:10:23.751Z,31.39
2022-08-10T16:12:09.679Z,31.55
2022-08-10T16:14:38.761Z,31.38
2022-08-10T16:17:11.891Z,31.36
2022-08-10T16:19:48.496Z,31.38
2022-08-10T16:22:34.429Z,30.19
2022-08-10T16:25:15.365Z,31.16
2022-08-10T16:27:45.349Z,30.92
2022-08-10T16:30:14.215Z,30.31
2022-08-10T16:32:43.308Z,29.83
2022-08-10T16:35:19.030Z,29.82
2022-08-10T16:37:56.548Z,29.59
2022-08-10T16:40:29.118Z,29.11
2022-08-10T16:42:58.698Z,28.85
2022-08-10T16:45:34.322Z,28.88
2022-08-10T16:48:03.225Z,28.93
2022-08-10T16:50:36.648Z,28.61
2022-08-10T16:53:07.863Z,28.32
2022-08-10T16:55:49.431Z,28.05
2022-08-10T16:58:21.936Z,27.61
2022-08-10T17:00:51.359Z,27.02
2022-08-10T17:04:06.516Z,26.51
2022-08-10T17:06:20.829Z,26.19
2022-08-10T17:08:53.138Z,26.01
2022-08-10T17:11:24.505Z,25.93
2022-08-10T17:13:57.099Z,25.85
2022-08-10T17:16:27.354Z,25.81
2022-08-10T17:18:57.963Z,25.88
2022-08-10T17:21:32.357Z,26.03
2022-08-10T17:24:05.038Z,25.88
2022-08-10T17:26:38.367Z,25.48
2022-08-10T17:29:50.569Z,25.10
2022-08-10T17:32:08.145Z,24.89
2022-08-10T17:34:39.807Z,24.73
2022-08-10T17:37:14.924Z,24.65
2022-08-10T17:39:48.204Z,24.39
2022-08-10T17:42:21.906Z,23.92
2022-08-10T17:44:52.312Z,24.32
2022-08-10T17:47:23.672Z,24.20
2022-08-10T17:49:57.081Z,24.04
2022-08-10T17:52:31.852Z,23.95
2022-08-10T17:55:04.282Z,23.93
2022-08-10T17:57:37.463Z,23.63
2022-08-10T18:00:08.308Z,23.67
2022-08-10T18:02:40.477Z,23.57
2022-08-10T18:05:11.215Z,23.60
2022-08-10T18:07:47.748Z,23.52
2022-08-10T18:10:19.098Z,23.44
2022-08-10T18:12:49.001Z,23.43
2022-08-10T18:15:22.111Z,23.35
2022-08-10T18:17:59.115Z,23.24
2022-08-10T18:20:33.938Z,23.13
2022-08-10T18:23:05.153Z,23.08
2022-08-10T18:25:36.171Z,22.99
2022-08-10T18:28:06.661Z,22.60
2022-08-10T18:30:37.664Z,22.82
2022-08-10T18:33:11.954Z,22.26
2022-08-10T18:35:40.728Z,22.75
2022-08-10T18:38:12.736Z,22.72
2022-08-10T18:40:44.814Z,22.65
2022-08-10T18:44:06.395Z,22.55
2022-08-10T18:46:11.251Z,22.47
2022-08-10T18:48:50.795Z,22.30
2022-08-10T18:51:25.415Z,22.35
2022-08-10T18:54:06.309Z,22.02
2022-08-10T18:56:56.309Z,22.18
2022-08-10T19:00:04.027Z,22.05
2022-08-10T19:02:55.097Z,21.92
2022-08-10T19:05:38.821Z,22.01
2022-08-10T19:08:30.379Z,21.93
2022-08-10T19:11:04.812Z,21.83
2022-08-10T19:13:38.107Z,21.82
2022-08-10T19:16:15.089Z,21.78
2022-08-10T19:18:51.520Z,21.64
2022-08-10T19:21:24.761Z,21.77
2022-08-10T19:24:04.334Z,21.69
2022-08-10T19:26:45.742Z,21.65
2022-08-10T19:30:11.757Z,21.46
2022-08-10T19:32:32.799Z,21.53
2022-08-10T19:35:09.627Z,21.46
2022-08-10T19:37:59.955Z,21.39
2022-08-10T19:40:44.679Z,21.33
2022-08-10T19:43:59.308Z,21.23
2022-08-10T19:46:28.470Z,21.16
2022-08-10T19:49:03.705Z,21.20
2022-08-10T19:51:48.421Z,21.21
2022-08-10T19:54:23.594Z,21.15
2022-08-10T19:56:59.552Z,21.19
2022-08-10T20:00:15.164Z,21.13
2022-08-10T20:02:27.744Z,21.06
2022-08-10T20:05:13.220Z,21.03
2022-08-10T20:07:52.355Z,20.59
2022-08-10T20:10:25.286Z,20.93
2022-08-10T20:13:01.797Z,20.87
2022-08-10T20:15:42.281Z,20.83
2022-08-10T20:18:14.240Z,20.56
2022-08-10T20:20:49.495Z,20.60
2022-08-10T20:23:21.011Z,20.77
2022-08-10T20:25:56.792Z,20.73
2022-08-10T20:28:35.324Z,20.72
2022-08-10T20:31:17.222Z,20.35
2022-08-10T20:34:01.001Z,20.64
2022-08-10T20:36:33.241Z,20.55
2022-08-10T20:39:11.468Z,20.34
2022-08-10T20:41:58.022Z,20.54
2022-08-10T20:44:38.002Z,20.53
2022-08-10T20:47:12.993Z,20.51
2022-08-10T20:49:48.737Z,20.52
2022-08-10T20:52:17.070Z,20.44
2022-08-10T20:54:52.411Z,20.33
2022-08-10T20:58:03.905Z,20.48
2022-08-10T21:00:42.855Z,20.34
2022-08-10T21:03:43.933Z,20.40
2022-08-10T21:06:42.610Z,19.99
2022-08-10T21:09:25.577Z,20.28
2022-08-10T21:12:18.388Z,20.34
2022-08-10T21:14:55.329Z,20.32
2022-08-10T21:17:44.726Z,20.33
2022-08-10T21:20:30.707Z,20.27
2022-08-10T21:23:20.914Z,20.21
2022-08-10T21:26:07.590Z,20.37
2022-08-10T21:29:02.706Z,20.38
2022-08-10T21:31:48.310Z,20.15
2022-08-10T21:34:35.506Z,20.40
2022-08-10T21:37:12.369Z,20.37
2022-08-10T21:39:54.979Z,20.22
2022-08-10T21:42:53.981Z,20.15
2022-08-10T21:45:59.326Z,20.26
2022-08-10T21:48:57.339Z,20.22
2022-08-10T21:52:06.869Z,20.19
2022-08-10T21:55:09.454Z,19.95
2022-08-10T21:58:04.955Z,19.99
2022-08-10T22:00:55.920Z,20.04
2022-08-10T22:03:44.061Z,20.00
2022-08-10T22:06:33.688Z,19.97
2022-08-10T22:09:24.263Z,19.93
2022-08-10T22:12:30.856Z,19.90
2022-08-10T22:15:23.679Z,19.84
2022-08-10T22:18:31.826Z,19.81
2022-08-10T22:21:27.100Z,19.77
2022-08-10T22:24:33.751Z,19.76
2022-08-10T22:27:56.511Z,19.74
2022-08-10T22:31:02.632Z,19.69
2022-08-10T22:34:02.561Z,19.66
2022-08-10T22:37:09.696Z,19.61
2022-08-10T22:40:17.325Z,19.58
2022-08-10T22:43:09.946Z,19.46
2022-08-10T22:46:02.503Z,19.49
2022-08-10T22:48:47.935Z,19.49
2022-08-10T22:51:27.117Z,19.46
2022-08-10T22:54:30.463Z,19.41
2022-08-10T22:57:19.133Z,19.36
2022-08-10T22:59:50.075Z,19.34
2022-08-10T23:02:29.414Z,19.16
2022-08-10T23:05:03.223Z,19.34
2022-08-10T23:07:33.375Z,19.33
2022-08-10T23:10:05.408Z,19.29
2022-08-10T23:12:39.029Z,19.25
2022-08-10T23:15:35.871Z,19.22
2022-08-10T23:18:25.885Z,19.17
2022-08-10T23:20:58.415Z,19.12
2022-08-10T23:23:28.937Z,19.08
2022-08-10T23:25:58.660Z,19.05
2022-08-10T23:28:38.898Z,19.01
2022-08-10T23:32:06.327Z,18.92
2022-08-10T23:34:09.680Z,18.94
2022-08-10T23:36:41.194Z,18.97
2022-08-10T23:39:25.630Z,18.99
2022-08-10T23:42:00.759Z,18.99
2022-08-10T23:44:36.965Z,19.00
2022-08-10T23:47:08.192Z,19.01
2022-08-10T23:49:38.344Z,19.03
2022-08-10T23:52:15.408Z,19.04
2022-08-10T23:54:47.224Z,19.06
2022-08-10T23:57:18.434Z,19.07
2022-08-10T23:59:56.633Z,19.02
